createdAt,value
2018-07-06T00:00:11.105Z,0.00
2018-07-06T00:01:11.082Z,0.00
2018-07-06T00:02:11.073Z,0.00
2018-07-06T00:03:11.059Z,0.00
2018-07-06T00:04:11.052Z,0.00
2018-07-06T00:05:11.043Z,0.00
2018-07-06T00:06:11.016Z,0.00
2018-07-06T00:07:11.003Z,0.00
2018-07-06T00:08:10.989Z,0.00
2018-07-06T00:09:11.076Z,0.00
2018-07-06T00:10:10.961Z,0.00
2018-07-06T00:11:10.946Z,0.00
2018-07-06T00:12:10.934Z,0.00
2018-07-06T00:13:10.921Z,0.00
2018-07-06T00:14:10.910Z,0.00
2018-07-06T00:15:10.898Z,0.00
2018-07-06T00:16:10.882Z,0.00
2018-07-06T00:17:10.867Z,0.00
2018-07-06T00:18:10.854Z,0.00
2018-07-06T00:19:10.842Z,0.00
2018-07-06T00:20:10.829Z,0.00
2018-07-06T00:21:10.813Z,0.00
2018-07-06T00:22:10.802Z,0.00
2018-07-06T00:23:10.787Z,0.00
2018-07-06T00:24:10.773Z,0.00
2018-07-06T00:25:10.762Z,0.00
2018-07-06T00:26:10.750Z,0.00
2018-07-06T00:27:10.734Z,0.00
2018-07-06T00:28:10.721Z,0.00
2018-07-06T00:29:11.024Z,0.00
2018-07-06T00:30:10.694Z,0.00
2018-07-06T00:31:10.678Z,0.00
2018-07-06T00:32:10.666Z,0.00
2018-07-06T00:33:10.652Z,0.00
2018-07-06T00:34:10.637Z,0.00
2018-07-06T00:35:10.625Z,0.00
2018-07-06T00:36:10.611Z,0.00
2018-07-06T00:37:10.596Z,0.00
2018-07-06T00:38:10.585Z,0.00
2018-07-06T00:39:10.571Z,0.00
2018-07-06T00:40:10.554Z,0.00
2018-07-06T00:41:10.544Z,0.00
2018-07-06T00:42:10.544Z,0.00
2018-07-06T00:43:10.516Z,0.00
2018-07-06T00:44:10.500Z,0.00
2018-07-06T00:45:10.487Z,0.00
2018-07-06T00:46:10.476Z,0.00
2018-07-06T00:47:10.461Z,0.00
2018-07-06T00:48:10.445Z,0.00
2018-07-06T00:49:10.434Z,0.00
2018-07-06T00:50:10.419Z,0.00
2018-07-06T00:51:10.410Z,0.00
2018-07-06T00:52:10.451Z,0.00
2018-07-06T00:53:10.379Z,0.00
2018-07-06T00:54:10.363Z,0.00
2018-07-06T00:55:10.397Z,0.00
2018-07-06T00:56:10.336Z,0.00
2018-07-06T00:57:10.323Z,0.00
2018-07-06T00:58:10.309Z,0.00
2018-07-06T00:59:10.295Z,0.00
2018-07-06T01:00:10.281Z,0.00
2018-07-06T01:01:10.275Z,0.00
2018-07-06T01:02:10.256Z,0.00
2018-07-06T01:03:10.239Z,0.00
2018-07-06T01:04:10.236Z,0.00
2018-07-06T01:05:10.219Z,0.00
2018-07-06T01:06:10.197Z,0.00
2018-07-06T01:07:10.197Z,0.00
2018-07-06T01:08:10.172Z,0.00
2018-07-06T01:09:10.159Z,0.00
2018-07-06T01:10:10.179Z,0.00
2018-07-06T01:11:10.130Z,0.00
2018-07-06T01:12:10.116Z,0.00
2018-07-06T01:13:10.102Z,0.00
2018-07-06T01:14:10.089Z,0.00
2018-07-06T01:15:10.074Z,0.00
2018-07-06T01:16:10.063Z,0.00
2018-07-06T01:17:10.047Z,0.00
2018-07-06T01:18:10.032Z,0.00
2018-07-06T01:19:10.021Z,0.00
2018-07-06T01:20:10.005Z,0.00
2018-07-06T01:21:09.992Z,0.00
2018-07-06T01:22:09.976Z,0.00
2018-07-06T01:23:09.963Z,0.00
2018-07-06T01:24:09.950Z,0.00
2018-07-06T01:25:09.935Z,0.00
2018-07-06T01:26:09.925Z,0.00
2018-07-06T01:27:09.910Z,0.00
2018-07-06T01:28:09.894Z,0.00
2018-07-06T01:29:09.885Z,0.00
2018-07-06T01:30:09.867Z,0.00
2018-07-06T01:31:09.869Z,0.00
2018-07-06T01:32:09.840Z,0.00
2018-07-06T01:33:09.827Z,0.00
2018-07-06T01:34:09.819Z,0.00
2018-07-06T01:35:09.799Z,0.00
2018-07-06T01:36:09.786Z,0.00
2018-07-06T01:37:09.771Z,0.00
2018-07-06T01:38:09.808Z,0.00
2018-07-06T01:39:09.745Z,0.00
2018-07-06T01:40:09.732Z,0.00
2018-07-06T01:41:09.716Z,0.00
2018-07-06T01:42:09.707Z,0.00
2018-07-06T01:43:09.698Z,0.00
2018-07-06T01:44:09.675Z,0.00
2018-07-06T01:45:09.664Z,0.00
2018-07-06T01:46:09.649Z,0.00
2018-07-06T01:47:09.639Z,0.00
2018-07-06T01:48:09.623Z,0.00
2018-07-06T01:49:09.616Z,0.00
2018-07-06T01:50:09.594Z,0.00
2018-07-06T01:51:09.731Z,0.00
2018-07-06T01:52:09.568Z,0.00
2018-07-06T01:53:09.555Z,0.00
2018-07-06T01:54:09.540Z,0.00
2018-07-06T01:55:09.527Z,0.00
2018-07-06T01:56:09.514Z,0.00
2018-07-06T01:57:09.499Z,0.00
2018-07-06T01:58:09.484Z,0.00
2018-07-06T01:59:09.472Z,0.00
2018-07-06T02:00:09.464Z,0.00
2018-07-06T02:01:09.446Z,0.00
2018-07-06T02:02:09.432Z,0.00
2018-07-06T02:03:09.417Z,0.00
2018-07-06T02:04:09.406Z,0.00
2018-07-06T02:05:09.391Z,0.00
2018-07-06T02:06:09.375Z,0.00
2018-07-06T02:07:09.362Z,0.00
2018-07-06T02:08:09.349Z,0.00
2018-07-06T02:09:09.336Z,0.00
2018-07-06T02:10:09.322Z,0.00
2018-07-06T02:11:09.308Z,0.00
2018-07-06T02:12:09.295Z,0.00
2018-07-06T02:13:09.282Z,0.00
2018-07-06T02:14:09.266Z,0.00
2018-07-06T02:15:09.258Z,0.00
2018-07-06T02:16:09.239Z,0.00
2018-07-06T02:17:09.227Z,0.00
2018-07-06T02:18:09.312Z,0.00
2018-07-06T02:19:09.199Z,0.00
2018-07-06T02:20:09.185Z,0.00
2018-07-06T02:21:09.172Z,0.00
2018-07-06T02:22:09.159Z,0.00
2018-07-06T02:23:09.143Z,0.00
2018-07-06T02:24:09.131Z,0.00
2018-07-06T02:25:09.126Z,0.00
2018-07-06T02:26:09.109Z,0.00
2018-07-06T02:27:09.091Z,0.00
2018-07-06T02:28:09.077Z,0.00
2018-07-06T02:29:09.063Z,0.00
2018-07-06T02:30:09.110Z,0.00
2018-07-06T02:31:09.035Z,0.00
2018-07-06T02:32:09.022Z,0.00
2018-07-06T02:33:09.008Z,0.00
2018-07-06T02:34:09.095Z,0.00
2018-07-06T02:35:08.981Z,0.00
2018-07-06T02:36:08.966Z,0.00
2018-07-06T02:37:08.959Z,0.00
2018-07-06T02:38:08.938Z,0.00
2018-07-06T02:39:08.927Z,0.00
2018-07-06T02:40:08.921Z,0.00
2018-07-06T02:41:08.906Z,0.00
2018-07-06T02:42:08.885Z,0.00
2018-07-06T02:43:08.871Z,0.00
2018-07-06T02:44:08.860Z,0.00
2018-07-06T02:45:08.846Z,0.00
2018-07-06T02:46:08.829Z,0.00
2018-07-06T02:47:08.817Z,0.00
2018-07-06T02:48:08.804Z,0.00
2018-07-06T02:49:08.790Z,0.00
2018-07-06T02:50:08.776Z,0.00
2018-07-06T02:51:08.764Z,0.00
2018-07-06T02:52:08.748Z,0.00
2018-07-06T02:53:08.735Z,0.00
2018-07-06T02:54:08.721Z,0.00
2018-07-06T02:55:08.712Z,0.00
2018-07-06T02:56:08.703Z,0.00
2018-07-06T02:57:08.681Z,0.00
2018-07-06T02:58:08.666Z,0.00
2018-07-06T02:59:08.654Z,0.00
2018-07-06T03:00:08.638Z,0.00
2018-07-06T03:01:08.629Z,0.00
2018-07-06T03:02:08.615Z,0.00
2018-07-06T03:03:08.599Z,0.00
2018-07-06T03:04:08.586Z,0.00
2018-07-06T03:05:08.573Z,0.00
2018-07-06T03:06:08.557Z,0.00
2018-07-06T03:07:08.545Z,0.00
2018-07-06T03:08:08.531Z,0.00
2018-07-06T03:09:08.517Z,0.00
2018-07-06T03:10:08.504Z,0.00
2018-07-06T03:11:08.490Z,0.00
2018-07-06T03:12:08.479Z,0.00
2018-07-06T03:13:08.473Z,0.00
2018-07-06T03:14:08.457Z,0.00
2018-07-06T03:15:08.436Z,0.00
2018-07-06T03:16:08.423Z,0.00
2018-07-06T03:17:08.459Z,0.00
2018-07-06T03:18:08.396Z,0.00
2018-07-06T03:19:08.383Z,0.00
2018-07-06T03:20:08.369Z,5.63
2018-07-06T03:21:08.356Z,5.63
2018-07-06T03:22:08.342Z,5.63
2018-07-06T03:23:08.328Z,5.63
2018-07-06T03:24:08.316Z,5.63
2018-07-06T03:25:08.310Z,5.63
2018-07-06T03:26:08.286Z,5.63
2018-07-06T03:27:08.274Z,5.63
2018-07-06T03:28:08.367Z,5.63
2018-07-06T03:29:08.247Z,5.63
2018-07-06T03:30:08.239Z,5.63
2018-07-06T03:31:08.222Z,5.63
2018-07-06T03:32:08.206Z,11.25
2018-07-06T03:33:08.195Z,11.25
2018-07-06T03:34:08.177Z,11.25
2018-07-06T03:35:08.164Z,11.25
2018-07-06T03:36:08.153Z,11.25
2018-07-06T03:37:08.139Z,11.25
2018-07-06T03:38:08.125Z,11.25
2018-07-06T03:39:08.110Z,11.25
2018-07-06T03:40:08.097Z,11.25
2018-07-06T03:41:08.084Z,16.88
2018-07-06T03:42:08.069Z,16.88
2018-07-06T03:43:08.065Z,16.88
2018-07-06T03:44:08.043Z,16.88
2018-07-06T03:45:08.030Z,16.88
2018-07-06T03:46:08.016Z,16.88
2018-07-06T03:47:08.011Z,16.88
2018-07-06T03:48:08.032Z,16.88
2018-07-06T03:49:07.975Z,22.50
2018-07-06T03:50:07.960Z,22.50
2018-07-06T03:51:07.949Z,22.50
2018-07-06T03:52:07.933Z,22.50
2018-07-06T03:53:07.922Z,22.50
2018-07-06T03:54:07.907Z,22.50
2018-07-06T03:55:07.898Z,16.88
2018-07-06T03:56:07.880Z,16.88
2018-07-06T03:57:07.867Z,22.50
2018-07-06T03:58:07.852Z,16.88
2018-07-06T03:59:07.838Z,22.50
2018-07-06T04:00:07.827Z,16.88
2018-07-06T04:01:07.854Z,16.88
2018-07-06T04:02:07.796Z,16.88
2018-07-06T04:03:07.785Z,16.88
2018-07-06T04:04:07.770Z,16.88
2018-07-06T04:05:07.761Z,16.88
2018-07-06T04:06:07.744Z,16.88
2018-07-06T04:07:07.736Z,16.88
2018-07-06T04:08:07.715Z,16.88
2018-07-06T04:09:07.730Z,22.50
2018-07-06T04:10:07.689Z,22.50
2018-07-06T04:11:07.676Z,22.50
2018-07-06T04:12:07.662Z,22.50
2018-07-06T04:13:07.648Z,22.50
2018-07-06T04:14:07.638Z,22.50
2018-07-06T04:15:07.621Z,22.50
2018-07-06T04:16:07.791Z,22.50
2018-07-06T04:17:07.593Z,22.50
2018-07-06T04:18:07.578Z,28.13
2018-07-06T04:19:07.570Z,33.75
2018-07-06T04:20:07.556Z,50.63
2018-07-06T04:21:07.542Z,56.25
2018-07-06T04:22:07.525Z,56.25
2018-07-06T04:23:07.524Z,56.25
2018-07-06T04:24:07.499Z,50.63
2018-07-06T04:25:07.483Z,50.63
2018-07-06T04:26:07.473Z,50.63
2018-07-06T04:27:07.457Z,50.63
2018-07-06T04:28:07.444Z,50.63
2018-07-06T04:29:07.434Z,45.00
2018-07-06T04:30:07.416Z,45.00
2018-07-06T04:31:07.407Z,45.00
2018-07-06T04:32:07.393Z,45.00
2018-07-06T04:33:07.379Z,45.00
2018-07-06T04:34:07.372Z,45.00
2018-07-06T04:35:07.349Z,50.63
2018-07-06T04:36:07.337Z,45.00
2018-07-06T04:37:07.341Z,45.00
2018-07-06T04:38:07.320Z,45.00
2018-07-06T04:39:07.295Z,39.38
2018-07-06T04:40:07.281Z,39.38
2018-07-06T04:41:07.267Z,45.00
2018-07-06T04:42:07.255Z,39.38
2018-07-06T04:43:07.241Z,45.00
2018-07-06T04:44:07.229Z,45.00
2018-07-06T04:45:07.213Z,45.00
2018-07-06T04:46:07.200Z,45.00
2018-07-06T04:47:07.185Z,45.00
2018-07-06T04:48:07.172Z,50.63
2018-07-06T04:49:07.159Z,50.63
2018-07-06T04:50:07.145Z,56.25
2018-07-06T04:51:07.170Z,50.63
2018-07-06T04:52:07.124Z,50.63
2018-07-06T04:53:07.105Z,56.25
2018-07-06T04:54:07.091Z,56.25
2018-07-06T04:55:07.074Z,56.25
2018-07-06T04:56:07.062Z,56.25
2018-07-06T04:57:07.049Z,61.88
2018-07-06T04:58:07.034Z,73.13
2018-07-06T04:59:07.027Z,84.38
2018-07-06T05:00:07.007Z,73.13
2018-07-06T05:01:06.995Z,67.50
2018-07-06T05:02:06.980Z,67.50
2018-07-06T05:03:06.967Z,61.88
2018-07-06T05:04:06.956Z,67.50
2018-07-06T05:05:06.940Z,67.50
2018-07-06T05:06:06.927Z,73.13
2018-07-06T05:07:06.913Z,78.75
2018-07-06T05:08:06.899Z,73.13
2018-07-06T05:09:06.884Z,73.13
2018-07-06T05:10:06.878Z,78.75
2018-07-06T05:11:06.857Z,73.13
2018-07-06T05:12:06.842Z,56.25
2018-07-06T05:13:06.834Z,56.25
2018-07-06T05:14:06.815Z,61.88
2018-07-06T05:15:06.803Z,67.50
2018-07-06T05:16:06.798Z,67.50
2018-07-06T05:17:06.775Z,73.13
2018-07-06T05:18:06.765Z,78.75
2018-07-06T05:19:06.748Z,84.38
2018-07-06T05:20:06.742Z,78.75
2018-07-06T05:21:06.723Z,78.75
2018-07-06T05:22:06.805Z,73.13
2018-07-06T05:23:06.693Z,73.13
2018-07-06T05:24:06.680Z,67.50
2018-07-06T05:25:06.668Z,67.50
2018-07-06T05:26:06.655Z,73.13
2018-07-06T05:27:06.642Z,90.00
2018-07-06T05:28:06.631Z,84.38
2018-07-06T05:29:06.613Z,73.13
2018-07-06T05:30:06.599Z,73.13
2018-07-06T05:31:06.597Z,84.38
2018-07-06T05:32:06.571Z,95.63
2018-07-06T05:33:06.558Z,73.13
2018-07-06T05:34:06.595Z,84.38
2018-07-06T05:35:06.533Z,90.00
2018-07-06T05:36:06.520Z,95.63
2018-07-06T05:37:06.507Z,95.63
2018-07-06T05:38:06.499Z,90.00
2018-07-06T05:39:06.476Z,112.50
2018-07-06T05:40:06.462Z,123.75
2018-07-06T05:41:06.447Z,123.75
2018-07-06T05:42:06.435Z,112.50
2018-07-06T05:43:06.426Z,106.88
2018-07-06T05:44:06.408Z,106.88
2018-07-06T05:45:06.417Z,101.25
2018-07-06T05:46:06.380Z,123.75
2018-07-06T05:47:06.378Z,129.38
2018-07-06T05:48:06.355Z,106.88
2018-07-06T05:49:06.339Z,112.50
2018-07-06T05:50:06.329Z,118.13
2018-07-06T05:51:06.315Z,112.50
2018-07-06T05:52:06.300Z,101.25
2018-07-06T05:53:06.287Z,95.63
2018-07-06T05:54:06.271Z,101.25
2018-07-06T05:55:06.359Z,90.00
2018-07-06T05:56:06.246Z,78.75
2018-07-06T05:57:06.232Z,84.38
2018-07-06T05:58:06.217Z,90.00
2018-07-06T05:59:06.206Z,123.75
2018-07-06T06:00:06.191Z,146.25
2018-07-06T06:01:06.185Z,140.63
2018-07-06T06:02:06.171Z,140.63
2018-07-06T06:03:06.179Z,146.25
2018-07-06T06:04:06.138Z,140.63
2018-07-06T06:05:06.123Z,146.25
2018-07-06T06:06:06.114Z,163.13
2018-07-06T06:07:06.100Z,180.00
2018-07-06T06:08:06.084Z,185.63
2018-07-06T06:09:06.079Z,196.88
2018-07-06T06:10:06.059Z,213.75
2018-07-06T06:11:06.045Z,213.75
2018-07-06T06:12:06.032Z,208.13
2018-07-06T06:13:06.024Z,225.00
2018-07-06T06:14:06.002Z,230.63
2018-07-06T06:15:05.994Z,225.00
2018-07-06T06:16:06.017Z,230.63
2018-07-06T06:17:05.969Z,230.63
2018-07-06T06:18:05.955Z,236.25
2018-07-06T06:19:05.938Z,225.00
2018-07-06T06:20:05.925Z,230.63
2018-07-06T06:21:05.914Z,247.50
2018-07-06T06:22:05.896Z,270.00
2018-07-06T06:23:05.887Z,286.88
2018-07-06T06:24:05.871Z,264.38
2018-07-06T06:25:05.858Z,264.38
2018-07-06T06:26:05.850Z,275.63
2018-07-06T06:27:05.841Z,281.25
2018-07-06T06:28:05.824Z,286.88
2018-07-06T06:29:05.807Z,281.25
2018-07-06T06:30:05.796Z,281.25
2018-07-06T06:31:05.783Z,258.75
2018-07-06T06:32:05.769Z,258.75
2018-07-06T06:33:05.774Z,275.63
2018-07-06T06:34:05.743Z,264.38
2018-07-06T06:35:05.731Z,258.75
2018-07-06T06:36:05.718Z,264.38
2018-07-06T06:37:05.704Z,270.00
2018-07-06T06:38:05.694Z,275.63
2018-07-06T06:39:05.708Z,281.25
2018-07-06T06:40:05.666Z,275.63
2018-07-06T06:41:05.658Z,309.38
2018-07-06T06:42:05.640Z,320.63
2018-07-06T06:43:05.628Z,315.00
2018-07-06T06:44:05.615Z,315.00
2018-07-06T06:45:05.603Z,320.63
2018-07-06T06:46:05.598Z,343.13
2018-07-06T06:47:05.578Z,382.50
2018-07-06T06:48:05.564Z,416.25
2018-07-06T06:49:05.551Z,444.38
2018-07-06T06:50:05.538Z,433.13
2018-07-06T06:51:05.526Z,393.75
2018-07-06T06:52:05.514Z,376.88
2018-07-06T06:53:05.513Z,365.63
2018-07-06T06:54:05.496Z,382.50
2018-07-06T06:55:05.477Z,365.63
2018-07-06T06:56:05.463Z,399.38
2018-07-06T06:57:05.451Z,393.75
2018-07-06T06:58:05.445Z,343.13
2018-07-06T06:59:05.515Z,303.75
2018-07-06T07:00:05.415Z,275.63
2018-07-06T07:01:05.510Z,286.88
2018-07-06T07:02:05.394Z,286.88
2018-07-06T07:03:05.379Z,292.50
2018-07-06T07:04:05.369Z,320.63
2018-07-06T07:05:05.363Z,371.25
2018-07-06T07:06:05.347Z,320.63
2018-07-06T07:07:05.331Z,292.50
2018-07-06T07:08:05.320Z,337.50
2018-07-06T07:09:05.308Z,382.50
2018-07-06T07:10:05.296Z,376.88
2018-07-06T07:11:05.284Z,343.13
2018-07-06T07:12:05.270Z,343.13
2018-07-06T07:13:05.266Z,331.88
2018-07-06T07:14:05.282Z,343.13
2018-07-06T07:15:05.235Z,331.88
2018-07-06T07:16:05.233Z,315.00
2018-07-06T07:17:05.212Z,292.50
2018-07-06T07:18:05.206Z,264.38
2018-07-06T07:19:05.219Z,258.75
2018-07-06T07:20:05.184Z,236.25
2018-07-06T07:21:05.175Z,219.38
2018-07-06T07:22:05.166Z,180.00
2018-07-06T07:23:05.138Z,140.63
2018-07-06T07:24:05.128Z,151.88
2018-07-06T07:25:05.117Z,219.38
2018-07-06T07:26:05.112Z,236.25
2018-07-06T07:27:05.107Z,253.13
2018-07-06T07:28:05.079Z,264.38
2018-07-06T07:29:05.068Z,253.13
2018-07-06T07:30:05.079Z,365.63
2018-07-06T07:31:05.102Z,405.00
2018-07-06T07:32:05.036Z,388.13
2018-07-06T07:33:05.019Z,376.88
2018-07-06T07:34:05.007Z,360.00
2018-07-06T07:35:05.005Z,337.50
2018-07-06T07:36:04.983Z,326.25
2018-07-06T07:37:04.972Z,376.88
2018-07-06T07:38:04.962Z,433.13
2018-07-06T07:39:04.948Z,427.50
2018-07-06T07:40:04.943Z,360.00
2018-07-06T07:41:04.932Z,286.88
2018-07-06T07:42:04.911Z,281.25
2018-07-06T07:43:04.898Z,343.13
2018-07-06T07:44:04.886Z,365.63
2018-07-06T07:45:04.927Z,365.63
2018-07-06T07:46:04.865Z,348.75
2018-07-06T07:47:04.853Z,343.13
2018-07-06T07:48:04.849Z,354.38
2018-07-06T07:49:04.835Z,382.50
2018-07-06T07:50:04.866Z,360.00
2018-07-06T07:51:04.811Z,343.13
2018-07-06T07:52:04.795Z,360.00
2018-07-06T07:53:04.782Z,376.88
2018-07-06T07:54:04.769Z,388.13
2018-07-06T07:55:04.809Z,410.63
2018-07-06T07:56:04.792Z,483.75
2018-07-06T07:57:04.735Z,495.00
2018-07-06T07:58:04.723Z,596.25
2018-07-06T07:59:04.720Z,624.38
2018-07-06T08:00:04.706Z,517.50
2018-07-06T08:01:04.842Z,601.88
2018-07-06T08:02:04.687Z,736.88
2018-07-06T08:03:04.673Z,832.50
2018-07-06T08:04:04.654Z,573.75
2018-07-06T08:05:04.643Z,545.63
2018-07-06T08:06:04.640Z,551.25
2018-07-06T08:07:04.619Z,478.13
2018-07-06T08:08:04.610Z,455.63
2018-07-06T08:09:04.599Z,523.13
2018-07-06T08:10:04.584Z,624.38
2018-07-06T08:11:04.573Z,781.88
2018-07-06T08:12:04.561Z,826.88
2018-07-06T08:13:04.554Z,984.38
2018-07-06T08:14:05.049Z,990.00
2018-07-06T08:15:04.534Z,1085.63
2018-07-06T08:16:04.520Z,2013.75
2018-07-06T08:17:04.507Z,1800.00
2018-07-06T08:18:04.499Z,1125.00
2018-07-06T08:19:04.486Z,1035.00
2018-07-06T08:20:04.488Z,821.25
2018-07-06T08:21:04.465Z,759.38
2018-07-06T08:22:04.455Z,928.13
2018-07-06T08:23:04.452Z,1006.88
2018-07-06T08:24:04.433Z,933.75
2018-07-06T08:25:04.424Z,613.13
2018-07-06T08:26:04.413Z,658.13
2018-07-06T08:27:04.412Z,894.38
2018-07-06T08:28:04.396Z,1108.13
2018-07-06T08:29:04.402Z,1113.75
2018-07-06T08:30:04.374Z,905.63
2018-07-06T08:31:04.366Z,793.13
2018-07-06T08:32:04.358Z,826.88
2018-07-06T08:33:04.356Z,804.38
2018-07-06T08:34:04.336Z,540.00
2018-07-06T08:35:04.326Z,579.38
2018-07-06T08:36:04.319Z,714.38
2018-07-06T08:37:04.309Z,731.25
2018-07-06T08:38:04.303Z,742.50
2018-07-06T08:39:04.289Z,680.63
2018-07-06T08:40:04.279Z,652.50
2018-07-06T08:41:04.270Z,691.88
2018-07-06T08:42:04.260Z,714.38
2018-07-06T08:43:04.257Z,838.13
2018-07-06T08:44:04.249Z,826.88
2018-07-06T08:45:04.238Z,961.88
2018-07-06T08:46:04.221Z,933.75
2018-07-06T08:47:04.213Z,928.13
2018-07-06T08:48:04.210Z,1136.25
2018-07-06T08:49:04.195Z,832.50
2018-07-06T08:50:04.189Z,1130.63
2018-07-06T08:51:04.176Z,1125.00
2018-07-06T08:52:04.165Z,1091.25
2018-07-06T08:53:04.154Z,1057.50
2018-07-06T08:54:04.145Z,945.00
2018-07-06T08:55:04.136Z,849.38
2018-07-06T08:56:04.127Z,838.13
2018-07-06T08:57:04.127Z,911.25
2018-07-06T08:58:04.158Z,871.88
2018-07-06T08:59:04.100Z,742.50
2018-07-06T09:00:04.143Z,736.88
2018-07-06T09:01:04.086Z,821.25
2018-07-06T09:02:04.073Z,967.50
2018-07-06T09:03:04.072Z,1012.50
2018-07-06T09:04:04.119Z,2193.75
2018-07-06T09:05:04.045Z,1209.38
2018-07-06T09:06:04.035Z,1440.00
2018-07-06T09:07:04.027Z,1636.88
2018-07-06T09:08:04.026Z,905.63
2018-07-06T09:09:04.010Z,945.00
2018-07-06T09:10:04.007Z,821.25
2018-07-06T09:11:03.993Z,804.38
2018-07-06T09:12:03.984Z,990.00
2018-07-06T09:13:03.979Z,1074.38
2018-07-06T09:14:03.974Z,1074.38
2018-07-06T09:15:03.967Z,950.63
2018-07-06T09:16:03.952Z,3982.50
2018-07-06T09:17:03.946Z,3791.25
2018-07-06T09:18:03.935Z,849.38
2018-07-06T09:19:03.928Z,3628.13
2018-07-06T09:20:04.019Z,4106.25
2018-07-06T09:21:03.912Z,4325.63
2018-07-06T09:22:03.904Z,1462.50
2018-07-06T09:23:03.901Z,4005.00
2018-07-06T09:24:03.893Z,2221.88
2018-07-06T09:25:03.886Z,1372.50
2018-07-06T09:26:04.194Z,1226.25
2018-07-06T09:27:03.877Z,1147.50
2018-07-06T09:28:03.870Z,973.13
2018-07-06T09:29:03.865Z,1715.63
2018-07-06T09:30:03.864Z,1153.13
2018-07-06T09:31:03.854Z,1102.50
2018-07-06T09:32:03.850Z,1350.00
2018-07-06T09:33:03.847Z,1288.13
2018-07-06T09:34:03.838Z,1198.13
2018-07-06T09:35:03.829Z,922.50
2018-07-06T09:36:03.827Z,832.50
2018-07-06T09:37:03.834Z,933.75
2018-07-06T09:38:03.837Z,1080.00
2018-07-06T09:39:03.819Z,736.88
2018-07-06T09:40:03.804Z,3532.50
2018-07-06T09:41:03.805Z,3757.50
2018-07-06T09:42:03.795Z,3982.50
2018-07-06T09:43:48.021Z,3768.75
2018-07-06T09:44:48.013Z,2452.50
2018-07-06T09:45:48.018Z,956.25
2018-07-06T09:46:48.009Z,2053.13
2018-07-06T09:47:48.008Z,900.00
2018-07-06T09:48:47.996Z,798.75
2018-07-06T09:49:47.993Z,995.63
2018-07-06T09:50:48.021Z,888.75
2018-07-06T09:51:47.987Z,1040.63
2018-07-06T09:52:48.093Z,1153.13
2018-07-06T09:53:47.976Z,1001.25
2018-07-06T09:54:47.970Z,956.25
2018-07-06T09:55:47.966Z,1035.00
2018-07-06T09:56:47.968Z,2728.13
2018-07-06T09:57:47.975Z,1231.88
2018-07-06T09:58:47.956Z,770.63
2018-07-06T09:59:47.955Z,3262.50
2018-07-06T10:00:47.954Z,4612.50
2018-07-06T10:01:47.953Z,3020.63
2018-07-06T10:02:47.942Z,3318.75
2018-07-06T10:03:47.937Z,990.00
2018-07-06T10:04:47.931Z,1423.13
2018-07-06T10:05:47.950Z,911.25
2018-07-06T10:06:47.925Z,1119.38
2018-07-06T10:07:47.920Z,2013.75
2018-07-06T10:08:47.915Z,2784.38
2018-07-06T10:09:47.960Z,3622.50
2018-07-06T10:10:47.910Z,1310.63
2018-07-06T10:11:47.915Z,2401.88
2018-07-06T10:12:47.905Z,2362.50
2018-07-06T10:13:47.900Z,4179.38
2018-07-06T10:14:47.896Z,1501.88
2018-07-06T10:15:47.894Z,4421.25
2018-07-06T10:16:47.891Z,4612.50
2018-07-06T10:17:47.889Z,3650.63
2018-07-06T10:18:47.897Z,4629.38
2018-07-06T10:19:47.905Z,4758.75
2018-07-06T10:20:47.896Z,4623.75
2018-07-06T10:21:47.914Z,4663.13
2018-07-06T10:22:47.901Z,4792.50
2018-07-06T10:23:47.886Z,860.63
2018-07-06T10:24:47.885Z,4933.13
2018-07-06T10:25:47.904Z,5017.50
2018-07-06T10:26:47.884Z,5045.63
2018-07-06T10:27:47.886Z,4100.63
2018-07-06T10:28:47.886Z,720.00
2018-07-06T10:29:47.889Z,1648.13
2018-07-06T10:30:47.893Z,4680.00
2018-07-06T10:31:47.903Z,4758.75
2018-07-06T10:32:47.901Z,4815.00
2018-07-06T10:33:47.952Z,4826.25
2018-07-06T10:34:47.920Z,4989.38
2018-07-06T10:35:47.901Z,4775.63
2018-07-06T10:36:47.902Z,4556.25
2018-07-06T10:37:47.905Z,4668.75
2018-07-06T10:38:47.929Z,4741.88
2018-07-06T10:39:48.079Z,4511.25
2018-07-06T10:40:47.916Z,4376.25
2018-07-06T10:41:47.931Z,4353.75
2018-07-06T10:42:47.926Z,4629.38
2018-07-06T10:43:47.926Z,4651.88
2018-07-06T10:44:47.929Z,4432.50
2018-07-06T10:45:47.937Z,4308.75
2018-07-06T10:46:47.941Z,4618.13
2018-07-06T10:47:47.944Z,4719.38
2018-07-06T10:48:47.951Z,4629.38
2018-07-06T10:49:48.007Z,4325.63
2018-07-06T10:50:47.962Z,4781.25
2018-07-06T10:51:47.967Z,4848.75
2018-07-06T10:52:47.971Z,4786.88
2018-07-06T10:53:47.979Z,4843.13
2018-07-06T10:54:47.984Z,4696.88
2018-07-06T10:55:47.990Z,4601.25
2018-07-06T10:56:47.997Z,4623.75
2018-07-06T10:57:48.002Z,4612.50
2018-07-06T10:58:48.009Z,4573.13
2018-07-06T10:59:48.019Z,4438.13
2018-07-06T11:00:48.028Z,4516.88
2018-07-06T11:01:48.025Z,4696.88
2018-07-06T11:02:48.048Z,4443.75
2018-07-06T11:03:48.043Z,4421.25
2018-07-06T11:04:48.045Z,4539.38
2018-07-06T11:05:48.056Z,4539.38
2018-07-06T11:06:48.061Z,4426.88
2018-07-06T11:07:48.064Z,4252.50
2018-07-06T11:08:48.109Z,4207.50
2018-07-06T11:09:48.075Z,4353.75
2018-07-06T11:10:48.089Z,4455.00
2018-07-06T11:11:48.088Z,4387.50
2018-07-06T11:12:48.103Z,4511.25
2018-07-06T11:13:48.102Z,4426.88
2018-07-06T11:14:48.115Z,4291.88
2018-07-06T11:15:48.112Z,4516.88
2018-07-06T11:16:48.120Z,4511.25
2018-07-06T11:17:48.168Z,4578.75
2018-07-06T11:18:48.162Z,4708.13
2018-07-06T11:19:48.140Z,4505.63
2018-07-06T11:20:48.144Z,4545.00
2018-07-06T11:21:48.152Z,4556.25
2018-07-06T11:22:48.160Z,4460.63
2018-07-06T11:23:48.165Z,4488.75
2018-07-06T11:24:48.172Z,4505.63
2018-07-06T11:25:48.180Z,4522.50
2018-07-06T11:26:48.185Z,4297.50
2018-07-06T11:27:48.192Z,4140.00
2018-07-06T11:28:48.200Z,4106.25
2018-07-06T11:29:48.206Z,4224.38
2018-07-06T11:30:48.222Z,4241.25
2018-07-06T11:31:48.227Z,4095.00
2018-07-06T11:32:48.226Z,3819.38
2018-07-06T11:33:48.232Z,3813.75
2018-07-06T11:34:48.249Z,3532.50
2018-07-06T11:35:48.244Z,4336.88
2018-07-06T11:36:48.264Z,4297.50
2018-07-06T11:37:48.289Z,3948.75
2018-07-06T11:38:48.263Z,3763.13
2018-07-06T11:39:48.269Z,3999.38
2018-07-06T11:40:48.275Z,4190.63
2018-07-06T11:41:48.279Z,3566.25
2018-07-06T11:42:48.286Z,3650.63
2018-07-06T11:43:48.291Z,4179.38
2018-07-06T11:44:48.325Z,3943.13
2018-07-06T11:45:48.302Z,3780.00
2018-07-06T11:46:48.311Z,3808.13
2018-07-06T11:47:48.312Z,3633.75
2018-07-06T11:48:48.327Z,1929.38
2018-07-06T11:49:48.322Z,511.88
2018-07-06T11:50:48.326Z,438.75
2018-07-06T11:51:48.337Z,416.25
2018-07-06T11:52:48.334Z,405.00
2018-07-06T11:53:48.338Z,405.00
2018-07-06T11:54:48.339Z,410.63
2018-07-06T11:55:48.343Z,405.00
2018-07-06T11:56:48.344Z,405.00
2018-07-06T11:57:48.347Z,416.25
2018-07-06T11:58:48.351Z,405.00
2018-07-06T11:59:48.347Z,416.25
2018-07-06T12:00:48.347Z,405.00
2018-07-06T12:01:48.369Z,421.88
2018-07-06T12:02:48.356Z,450.00
2018-07-06T12:03:48.347Z,416.25
2018-07-06T12:04:48.346Z,399.38
2018-07-06T12:05:48.357Z,382.50
2018-07-06T12:06:48.345Z,382.50
2018-07-06T12:07:48.349Z,382.50
2018-07-06T12:08:48.338Z,371.25
2018-07-06T12:09:48.338Z,371.25
2018-07-06T12:10:48.336Z,382.50
2018-07-06T12:11:48.345Z,405.00
2018-07-06T12:12:48.328Z,416.25
2018-07-06T12:13:48.325Z,399.38
2018-07-06T12:14:48.321Z,427.50
2018-07-06T12:15:48.322Z,421.88
2018-07-06T12:16:48.316Z,405.00
2018-07-06T12:17:48.313Z,444.38
2018-07-06T12:18:48.308Z,433.13
2018-07-06T12:19:48.309Z,393.75
2018-07-06T12:20:48.330Z,399.38
2018-07-06T12:21:48.497Z,450.00
2018-07-06T12:22:48.289Z,410.63
2018-07-06T12:23:48.283Z,483.75
2018-07-06T12:24:48.378Z,500.63
2018-07-06T12:25:48.273Z,506.25
2018-07-06T12:26:48.268Z,624.38
2018-07-06T12:27:48.309Z,601.88
2018-07-06T12:28:48.259Z,489.38
2018-07-06T12:29:48.253Z,506.25
2018-07-06T12:30:48.247Z,399.38
2018-07-06T12:31:48.246Z,433.13
2018-07-06T12:32:48.234Z,433.13
2018-07-06T12:33:48.229Z,562.50
2018-07-06T12:34:48.228Z,551.25
2018-07-06T12:35:48.218Z,573.75
2018-07-06T12:36:48.209Z,568.13
2018-07-06T12:37:48.213Z,506.25
2018-07-06T12:38:48.199Z,551.25
2018-07-06T12:39:48.194Z,624.38
2018-07-06T12:40:48.296Z,680.63
2018-07-06T12:41:48.182Z,714.38